METAR AND TAF INFORMATION

METAR FOR TFFR
ADDS - METARS form results

(0842 UTC 29 September 2022)
Data provider http://aviationweather.gov/metar/data/
 
METAR text: TFFR 290830Z AUTO 08002KT 9999 FEW018/// BKN100/// ///CB 25/24 Q1010
Conditions at: TFFR (LE RAIZET , GP) observed 0830 UTC 29 September 2022
Temperature: 25.0°C (77°F)
Dewpoint: 24.0°C (75°F) [RH = 94%]
Pressure (altimeter): 29.82 inches Hg (1010.0 mb)
Winds: from the E (80 degrees) at 2 MPH (2 knots; 1.0 m/s)
Visibility: 6 or more miles (10+ km)
Ceiling: 10000 feet AGL
Clouds: few clouds at 1800 feet AGL
broken clouds at 10000 feet AGL
Weather: no significant weather observed at this time

METAR text: TFFR 290800Z AUTO VRB02KT 9999 SCT021/// SCT035/// OVC100/// ///TCU 25/24 Q1010
Conditions at: TFFR (LE RAIZET , GP) observed 0800 UTC 29 September 2022
Temperature: 25.0°C (77°F)
Dewpoint: 24.0°C (75°F) [RH = 94%]
Pressure (altimeter): 29.82 inches Hg (1010.0 mb)
Winds: variable direction winds at 2 MPH (2 knots; 1.0 m/s)
Visibility: 6 or more miles (10+ km)
Ceiling: 10000 feet AGL
Clouds: scattered clouds at 2100 feet AGL
scattered clouds at 3500 feet AGL
overcast cloud deck at 10000 feet AGL
Weather: no significant weather observed at this time

 

AIRPORT MAP

 

RUNWAY INFORMATION

Runway 12 Runway length 11499 ft Runway width 148 ft
Runway elevation 5 ft Runway displaced threshold 1312 ft Runway heading 101
Runway 30 Runway length 11499 ft Runway width 148 ft
Runway elevation 32 ft Runway displaced threshold 820 ft Runway heading 281

 

AIRPORT FREQUENCIES

Type APP Name RAIZET APP Frequency 121.3 MHZ
Type ATIS Name ATIS Frequency 127.6 MHZ
Type GND Name GND Frequency 121.85 MHZ
Type TWR Name RAIZET TWR Frequency 118.4 MHZ

 

AIRPORT NEAR NAVIGATION AIDS

Type VOR-DME Name Pointe A Pitre Frequency 112900 KHZ
Type NDB Name Pointe A Pitre Frequency 385 KHZ